Time;durP1;ratioP1;P1;durP2;ratioP2;P2;SDS_P1;SDS_P2;PMS_P1;PMS_P2;Temp;Humidity;BMP_temperature;BMP_pressure;BME280_temperature;BME280_humidity;BME280_pressure;Samples;Min_cycle;Max_cycle;Signal;HPM_P1;HPM_P2
2022/06/11 00:01:19;;;;;;;9.77;6.72;;;;;;;22.33;53.97;101982.44;5030968;28;20041;-68
2022/06/11 00:03:49;;;;;;;9.85;6.60;;;;;;;22.29;53.89;101975.53;5031522;28;20124;-68
2022/06/11 00:06:17;;;;;;;13.65;6.30;;;;;;;22.26;53.81;101983.19;5030993;28;20045;-68
2022/06/11 00:08:43;;;;;;;8.70;6.28;;;;;;;22.20;54.22;101980.06;5040087;28;20060;-68
2022/06/11 00:11:11;;;;;;;9.98;6.35;;;;;;;22.18;54.13;101986.72;5030454;28;20128;-68
2022/06/11 00:13:42;;;;;;;8.40;5.97;;;;;;;22.16;54.16;101983.28;5030919;28;20044;-67
2022/06/11 00:16:11;;;;;;;7.50;5.90;;;;;;;22.11;54.05;101986.50;5030362;28;20063;-68
2022/06/11 00:18:40;;;;;;;8.82;6.75;;;;;;;22.08;54.50;101985.94;5040489;28;20056;-68
2022/06/11 00:21:07;;;;;;;11.98;6.25;;;;;;;22.03;54.39;101983.69;5033804;28;20043;-68
2022/06/11 00:23:34;;;;;;;11.63;6.47;;;;;;;21.98;54.18;101982.41;5029516;28;20057;-67
2022/06/11 00:26:03;;;;;;;8.00;6.20;;;;;;;21.94;54.16;101981.84;5030898;28;20034;-68
2022/06/11 00:28:30;;;;;;;8.50;6.75;;;;;;;21.90;54.31;101983.16;5030825;28;20038;-68
2022/06/11 00:30:57;;;;;;;8.20;6.30;;;;;;;21.86;54.38;101981.75;5030668;28;20491;-68
2022/06/11 00:33:24;;;;;;;9.95;6.55;;;;;;;21.80;54.14;101983.25;5030609;28;20104;-68
2022/06/11 00:35:51;;;;;;;7.70;6.07;;;;;;;21.74;54.52;101983.00;5030891;28;20443;-67
2022/06/11 00:38:19;;;;;;;9.77;6.50;;;;;;;21.69;54.30;101980.72;5037523;28;20045;-67
2022/06/11 00:40:49;;;;;;;6.85;5.97;;;;;;;21.63;54.32;101981.34;5035414;28;20076;-67
2022/06/11 00:43:20;;;;;;;9.43;6.20;;;;;;;21.58;54.50;101975.47;5030652;28;20033;-67
2022/06/11 00:46:15;;;;;;;8.23;6.25;;;;;;;21.50;54.76;101978.94;5023569;28;20058;-67
2022/06/11 00:48:42;;;;;;;9.50;6.25;;;;;;;21.42;54.67;101975.25;4999894;28;20068;-67
2022/06/11 00:51:17;;;;;;;10.60;6.68;;;;;;;21.34;54.44;101981.47;5041750;28;20124;-67
2022/06/11 00:53:55;;;;;;;9.13;6.55;;;;;;;21.29;54.72;101980.22;5031429;28;20065;-67
2022/06/11 00:56:28;;;;;;;8.77;6.00;;;;;;;21.25;54.86;101975.06;5030478;28;20080;-67
2022/06/11 00:58:59;;;;;;;10.20;6.10;;;;;;;21.21;54.99;101979.06;5030443;28;20073;-66
2022/06/11 01:01:27;;;;;;;6.72;5.78;;;;;;;21.18;55.19;101976.63;5030481;28;20053;-67
2022/06/11 01:04:00;;;;;;;8.80;5.93;;;;;;;21.14;55.09;101977.09;5030862;28;20530;-67
2022/06/11 01:06:37;;;;;;;10.27;6.03;;;;;;;21.09;54.98;101971.22;5018277;28;20049;-67
2022/06/11 01:09:38;;;;;;;10.40;5.97;;;;;;;21.05;55.41;101973.38;5027250;28;20265;-66
2022/06/11 01:12:50;;;;;;;7.68;5.65;;;;;;;21.01;55.36;101962.91;5027670;28;20030;-67
2022/06/11 01:15:44;;;;;;;6.10;5.07;;;;;;;20.98;55.44;101971.41;5009570;28;20097;-67
2022/06/11 01:18:38;;;;;;;6.57;5.78;;;;;;;20.97;55.60;101972.41;5027755;28;20041;-67
2022/06/11 01:21:19;;;;;;;6.10;5.10;;;;;;;20.93;55.28;101974.56;5027177;28;20088;-67
2022/06/11 01:24:24;;;;;;;8.52;4.90;;;;;;;20.86;55.58;101970.72;5024109;28;20072;-67
2022/06/11 01:27:16;;;;;;;8.00;5.00;;;;;;;20.83;55.43;101968.28;5024390;28;20065;-67
2022/06/11 01:29:54;;;;;;;7.75;5.20;;;;;;;20.81;55.45;101964.84;5029085;28;20076;-67
2022/06/11 01:32:58;;;;;;;9.73;6.05;;;;;;;20.75;55.60;101959.94;5034012;28;20403;-67
2022/06/11 01:35:31;;;;;;;5.75;5.10;;;;;;;20.70;55.70;101959.53;5021191;28;20041;-67
2022/06/11 01:38:04;;;;;;;6.82;5.40;;;;;;;20.67;55.96;101960.69;5023058;28;20038;-67
2022/06/11 01:40:56;;;;;;;9.52;5.80;;;;;;;20.62;55.95;101961.13;5023603;28;20126;-67
2022/06/11 01:43:33;;;;;;;9.60;5.50;;;;;;;20.62;55.90;101963.84;5036466;28;20037;-67
2022/06/11 01:46:05;;;;;;;7.40;4.75;;;;;;;20.62;56.13;101966.59;5024293;28;20068;-66
2022/06/11 01:48:32;;;;;;;5.68;4.97;;;;;;;20.61;56.08;101961.28;5022627;28;20113;-68
2022/06/11 01:51:21;;;;;;;6.32;4.80;;;;;;;20.56;56.19;101959.00;5023305;28;20037;-67
2022/06/11 01:54:05;;;;;;;6.80;4.82;;;;;;;20.53;56.10;101961.16;5033384;28;20048;-67
2022/06/11 01:56:51;;;;;;;7.65;5.18;;;;;;;20.52;55.63;101967.63;5033475;28;20046;-66
2022/06/11 01:59:36;;;;;;;9.82;5.18;;;;;;;20.49;56.12;101970.63;5033295;28;20040;-67
2022/06/11 02:02:12;;;;;;;8.77;5.35;;;;;;;20.45;55.94;101966.47;5033270;28;20435;-67
2022/06/11 02:04:54;;;;;;;7.20;5.50;;;;;;;20.41;56.05;101968.63;5034576;28;20048;-67
2022/06/11 02:07:31;;;;;;;6.70;5.28;;;;;;;20.35;55.94;101965.59;5039131;28;20044;-67
2022/06/11 02:10:25;;;;;;;8.00;6.20;;;;;;;20.29;56.23;101967.03;5033202;28;20037;-67
2022/06/11 02:12:59;;;;;;;10.52;5.70;;;;;;;20.24;55.84;101955.72;5048181;28;20041;-67
2022/06/11 02:15:37;;;;;;;8.57;5.30;;;;;;;20.20;56.09;101960.59;5033036;28;20038;-67
2022/06/11 02:18:08;;;;;;;7.25;5.10;;;;;;;20.17;56.05;101960.88;5033244;28;20034;-67
2022/06/11 02:20:39;;;;;;;7.65;5.78;;;;;;;20.13;56.34;101956.72;5032913;28;20068;-68
2022/06/11 02:23:14;;;;;;;7.20;5.45;;;;;;;20.13;56.60;101964.91;5031657;28;20042;-68
2022/06/11 02:25:46;;;;;;;7.90;5.35;;;;;;;20.16;56.61;101963.75;5022036;28;20053;-68
2022/06/11 02:28:19;;;;;;;6.32;5.55;;;;;;;20.16;56.68;101961.03;5030798;28;20033;-68
2022/06/11 02:30:49;;;;;;;7.68;5.50;;;;;;;20.17;56.65;101963.59;5033421;28;20036;-68
2022/06/11 02:33:20;;;;;;;5.60;5.05;;;;;;;20.17;56.92;101963.59;5032642;28;20045;-68
2022/06/11 02:35:58;;;;;;;6.82;5.82;;;;;;;20.18;56.98;101959.00;5032353;28;20103;-67
2022/06/11 02:38:28;;;;;;;7.15;5.38;;;;;;;20.17;56.34;101957.28;5032548;28;20359;-67
2022/06/11 02:40:57;;;;;;;5.63;4.95;;;;;;;20.16;56.93;101959.16;5031812;28;20511;-67
2022/06/11 02:43:27;;;;;;;8.73;5.40;;;;;;;20.13;56.66;101959.44;5034317;28;20117;-68
2022/06/11 02:45:55;;;;;;;9.93;5.45;;;;;;;20.11;56.69;101958.72;5032288;28;20057;-68
2022/06/11 02:48:22;;;;;;;9.65;5.50;;;;;;;20.09;56.82;101971.66;5032269;28;20064;-68
2022/06/11 02:50:49;;;;;;;8.20;5.55;;;;;;;20.05;56.83;101972.91;5047714;28;20044;-69
2022/06/11 02:53:17;;;;;;;7.55;5.38;;;;;;;20.03;56.83;101977.63;5033851;28;20471;-70
2022/06/11 02:55:45;;;;;;;6.70;5.65;;;;;;;20.00;56.89;101983.38;5032166;28;20041;-67
2022/06/11 02:58:13;;;;;;;6.78;5.18;;;;;;;19.96;56.93;101973.75;5023550;28;20141;-67
2022/06/11 03:00:45;;;;;;;8.48;5.50;;;;;;;19.92;57.04;101978.63;5027283;28;20038;-68
2022/06/11 03:03:14;;;;;;;10.73;5.63;;;;;;;19.91;57.02;101986.97;5032168;28;20466;-67
2022/06/11 03:05:41;;;;;;;6.70;5.53;;;;;;;19.88;56.93;101981.78;5042488;28;20338;-68
2022/06/11 03:08:09;;;;;;;9.40;5.13;;;;;;;19.84;57.10;101983.94;5032089;28;20159;-68
2022/06/11 03:10:36;;;;;;;6.03;5.00;;;;;;;19.80;57.40;101990.69;5032017;28;20103;-67
2022/06/11 03:13:07;;;;;;;7.00;5.45;;;;;;;19.80;57.20;101998.00;5031945;28;20061;-67
2022/06/11 03:15:35;;;;;;;6.65;5.18;;;;;;;19.80;57.07;101996.13;5039051;28;20061;-68
2022/06/11 03:18:02;;;;;;;9.65;6.15;;;;;;;19.82;57.49;102001.44;5033967;28;20033;-68
2022/06/11 03:20:31;;;;;;;7.45;4.90;;;;;;;19.83;57.58;102001.31;5031894;28;20045;-68
2022/06/11 03:23:02;;;;;;;7.47;4.57;;;;;;;19.82;57.42;101999.59;5031770;28;20140;-67
2022/06/11 03:25:28;;;;;;;7.00;4.78;;;;;;;19.83;57.36;102003.16;5031810;28;20077;-67
2022/06/11 03:27:55;;;;;;;6.20;5.07;;;;;;;19.82;57.53;102005.03;5038870;28;20043;-67
2022/06/11 03:30:22;;;;;;;9.93;5.30;;;;;;;19.80;57.48;102012.50;5031655;28;20044;-67
2022/06/11 03:32:53;;;;;;;6.28;4.88;;;;;;;19.79;57.36;102018.09;5031896;28;20116;-68
2022/06/11 03:35:20;;;;;;;7.63;5.20;;;;;;;19.76;57.32;102016.50;5031616;28;20128;-67
2022/06/11 03:37:47;;;;;;;7.10;4.90;;;;;;;19.74;57.34;102018.50;5031670;28;20463;-67
2022/06/11 03:40:13;;;;;;;10.55;5.50;;;;;;;19.73;57.09;102018.63;5039735;28;20058;-67
2022/06/11 03:42:40;;;;;;;7.38;5.30;;;;;;;19.70;57.32;102025.25;5031318;28;20045;-71
2022/06/11 03:45:08;;;;;;;7.25;5.32;;;;;;;19.71;57.26;102026.09;5031595;28;20037;-68
2022/06/11 03:47:38;;;;;;;8.93;5.50;;;;;;;19.70;57.36;102030.69;5031546;28;20464;-67
2022/06/11 03:50:08;;;;;;;9.20;4.95;;;;;;;19.70;57.21;102027.97;5031201;28;20080;-68
2022/06/11 03:52:37;;;;;;;7.18;5.15;;;;;;;19.70;57.34;102038.00;5036127;28;20041;-68
2022/06/11 03:55:04;;;;;;;5.90;5.00;;;;;;;19.70;57.51;102041.59;5029607;28;20056;-67
2022/06/11 03:57:31;;;;;;;8.25;4.93;;;;;;;19.71;57.46;102042.44;5031233;28;20037;-67
2022/06/11 03:59:57;;;;;;;7.95;5.50;;;;;;;19.69;57.68;102039.88;5031151;28;20049;-68
2022/06/11 04:02:28;;;;;;;6.68;5.28;;;;;;;19.72;57.54;102038.72;5031460;28;20029;-69
2022/06/11 04:04:54;;;;;;;8.75;5.03;;;;;;;19.76;57.69;102040.16;5031256;28;20213;-68
2022/06/11 04:07:21;;;;;;;6.93;5.30;;;;;;;19.79;58.11;102038.03;5030948;28;20065;-68
2022/06/11 04:09:47;;;;;;;6.80;4.75;;;;;;;19.83;58.06;102047.66;5031163;28;20029;-68
2022/06/11 04:12:18;;;;;;;6.28;4.97;;;;;;;19.87;58.29;102050.94;5031033;28;20064;-68
2022/06/11 04:14:47;;;;;;;7.28;4.15;;;;;;;19.90;58.42;102050.69;5031607;28;20073;-68
2022/06/11 04:17:19;;;;;;;9.48;4.57;;;;;;;19.93;58.46;102051.25;5039469;28;20391;-67
2022/06/11 04:19:48;;;;;;;9.50;4.35;;;;;;;19.97;58.58;102052.69;5030753;28;20549;-68
2022/06/11 04:22:20;;;;;;;6.00;4.43;;;;;;;20.03;58.74;102055.88;5020370;28;20034;-67
2022/06/11 04:24:47;;;;;;;7.57;4.22;;;;;;;20.06;58.72;102058.31;5028993;28;20053;-67
2022/06/11 04:27:15;;;;;;;9.20;4.75;;;;;;;20.09;58.50;102056.19;5023905;28;20040;-67
2022/06/11 04:29:46;;;;;;;8.70;4.53;;;;;;;20.11;58.52;102056.06;5034605;28;20034;-68
2022/06/11 04:32:16;;;;;;;6.28;3.92;;;;;;;20.12;58.97;102064.09;5031009;28;20077;-68
2022/06/11 04:34:45;;;;;;;8.00;4.07;;;;;;;20.15;58.47;102063.81;5030755;28;20037;-67
2022/06/11 04:37:14;;;;;;;8.27;4.07;;;;;;;20.19;58.46;102069.84;5030872;28;20038;-68
2022/06/11 04:39:44;;;;;;;8.52;4.20;;;;;;;20.22;58.50;102066.84;5036840;28;20465;-68
2022/06/11 04:42:14;;;;;;;8.35;4.10;;;;;;;20.24;58.69;102068.41;5030742;28;20045;-68
2022/06/11 04:44:43;;;;;;;11.15;4.18;;;;;;;20.27;58.35;102073.59;5030708;28;20500;-67
2022/06/11 04:47:13;;;;;;;6.25;4.20;;;;;;;20.34;58.18;102078.47;5030541;28;20061;-67
2022/06/11 04:49:40;;;;;;;7.65;4.30;;;;;;;20.36;58.54;102073.72;5030661;28;20045;-67
2022/06/11 04:52:12;;;;;;;5.60;4.15;;;;;;;20.39;58.13;102082.53;5035369;28;20128;-67
2022/06/11 04:54:39;;;;;;;6.10;3.47;;;;;;;20.42;58.38;102075.91;5030468;28;20395;-67
2022/06/11 04:57:06;;;;;;;7.75;4.03;;;;;;;20.41;58.13;102080.53;5030730;28;20404;-68
2022/06/11 04:59:33;;;;;;;10.07;4.18;;;;;;;20.45;58.15;102072.91;5056291;28;20561;-67
2022/06/11 05:02:15;;;;;;;5.38;3.53;;;;;;;20.46;58.06;102083.69;5022749;28;20402;-67
2022/06/11 05:04:42;;;;;;;9.02;3.78;;;;;;;20.50;57.66;102078.78;5033646;28;20045;-67
2022/06/11 05:07:08;;;;;;;7.28;3.85;;;;;;;20.51;57.66;102075.91;5034419;28;20038;-68
2022/06/11 05:09:35;;;;;;;9.82;3.97;;;;;;;20.53;57.54;102079.38;5034199;28;20424;-67
2022/06/11 05:12:11;;;;;;;6.63;3.83;;;;;;;20.53;57.53;102078.50;5034082;28;20044;-68
2022/06/11 05:14:38;;;;;;;5.40;3.35;;;;;;;20.56;56.99;102083.69;5034043;28;20033;-67
2022/06/11 05:17:05;;;;;;;8.68;3.92;;;;;;;20.57;57.28;102079.94;5043358;28;20065;-67
2022/06/11 05:19:33;;;;;;;11.23;4.07;;;;;;;20.58;56.92;102084.41;5034033;28;20077;-68
2022/06/11 05:22:19;;;;;;;7.82;3.72;;;;;;;20.57;56.85;102078.06;5034087;28;20037;-68
2022/06/11 05:24:46;;;;;;;10.15;3.70;;;;;;;20.62;56.71;102083.09;5033781;28;20533;-67
2022/06/11 05:27:16;;;;;;;11.63;3.50;;;;;;;20.63;56.79;102082.97;5030483;28;20107;-67
2022/06/11 05:29:52;;;;;;;7.55;3.25;;;;;;;20.66;56.50;102084.53;5037624;28;20488;-67
2022/06/11 05:32:22;;;;;;;6.47;3.10;;;;;;;20.70;56.07;102085.09;5028228;28;20038;-68
2022/06/11 05:34:49;;;;;;;11.80;3.10;;;;;;;20.72;56.02;102088.56;5029689;28;20464;-67
2022/06/11 05:37:16;;;;;;;7.45;3.30;;;;;;;20.76;56.37;102098.19;5030140;28;20045;-68
2022/06/11 05:39:46;;;;;;;8.13;3.40;;;;;;;20.81;56.14;102106.81;5030829;28;20557;-67
2022/06/11 05:42:17;;;;;;;8.43;3.20;;;;;;;20.83;55.71;102104.81;5033688;28;20076;-68
2022/06/11 05:44:43;;;;;;;8.57;3.30;;;;;;;20.87;55.89;102103.50;5029839;28;20531;-67
2022/06/11 05:47:14;;;;;;;9.20;3.08;;;;;;;20.91;55.87;102089.41;5025718;28;20069;-69
2022/06/11 05:49:45;;;;;;;9.13;3.67;;;;;;;20.96;55.27;102090.84;5030136;28;20471;-68
2022/06/11 05:52:19;;;;;;;8.07;3.58;;;;;;;21.00;55.67;102093.16;5026785;28;20048;-68
2022/06/11 05:54:46;;;;;;;8.27;3.17;;;;;;;21.05;55.27;102088.09;5029439;28;20534;-68
2022/06/11 05:57:17;;;;;;;11.15;3.22;;;;;;;21.05;55.22;102090.84;5019495;28;20038;-68
2022/06/11 06:00:15;;;;;;;12.00;2.75;;;;;;;21.06;55.06;102097.16;5032045;28;20458;-67
2022/06/11 06:02:45;;;;;;;11.80;3.58;;;;;;;21.10;54.63;102098.59;5028838;28;20129;-67
2022/06/11 06:05:16;;;;;;;10.82;3.45;;;;;;;21.12;54.73;102085.63;5032892;28;20053;-68
2022/06/11 06:07:48;;;;;;;8.13;3.67;;;;;;;21.17;54.69;102099.72;5033177;28;20051;-68
2022/06/11 06:10:15;;;;;;;6.75;3.15;;;;;;;21.21;54.61;102093.81;5030106;28;20069;-67
2022/06/11 06:12:42;;;;;;;8.70;3.00;;;;;;;21.29;54.37;102100.44;5018614;28;20117;-68
2022/06/11 06:15:25;;;;;;;11.77;3.42;;;;;;;21.36;54.45;102107.91;5029036;28;20930;-68
2022/06/11 06:17:52;;;;;;;10.73;3.53;;;;;;;21.44;53.92;102113.47;5033366;28;20553;-67
2022/06/11 06:20:22;;;;;;;7.90;2.92;;;;;;;21.50;53.95;102104.69;5032487;28;20582;-67
2022/06/11 06:22:49;;;;;;;9.30;2.85;;;;;;;21.63;53.53;102115.31;5029818;28;20041;-67
2022/06/11 06:25:20;;;;;;;12.57;2.90;;;;;;;21.71;53.34;102101.75;5030429;28;20479;-67
2022/06/11 06:27:46;;;;;;;13.32;3.97;;;;;;;21.82;53.51;102107.00;5031820;28;20395;-67
2022/06/11 06:30:17;;;;;;;10.13;2.72;;;;;;;21.89;52.88;102118.19;5024377;28;20038;-67
2022/06/11 06:32:45;;;;;;;11.40;3.33;;;;;;;21.92;52.61;102106.97;5029972;28;20037;-67
2022/06/11 06:35:11;;;;;;;8.90;3.17;;;;;;;21.94;52.54;102102.19;5026545;28;20064;-67
2022/06/11 06:37:38;;;;;;;8.43;2.65;;;;;;;21.98;52.36;102110.97;5014142;28;20452;-67
2022/06/11 06:40:05;;;;;;;11.30;3.03;;;;;;;22.04;52.24;102113.13;5023731;28;20038;-66
2022/06/11 06:42:34;;;;;;;11.10;3.28;;;;;;;22.11;51.74;102101.41;5013573;28;20152;-67
2022/06/11 06:45:01;;;;;;;11.15;3.45;;;;;;;22.21;51.78;102117.75;5027486;28;20426;-67
2022/06/11 06:47:27;;;;;;;11.05;3.78;;;;;;;22.34;51.93;102120.16;5013555;28;20041;-67
2022/06/11 06:49:54;;;;;;;12.32;3.55;;;;;;;22.42;51.47;102115.63;5020362;28;20581;-66
2022/06/11 06:52:24;;;;;;;13.40;3.63;;;;;;;22.46;50.90;102118.91;5032383;28;20045;-67
2022/06/11 06:54:50;;;;;;;10.35;3.08;;;;;;;22.48;50.74;102115.00;5028331;28;20492;-67
2022/06/11 06:57:17;;;;;;;14.55;3.20;;;;;;;22.56;51.25;102121.56;5032231;28;20554;-67
2022/06/11 06:59:43;;;;;;;30.67;3.55;;;;;;;22.64;50.95;102117.03;5032373;28;20042;-67
2022/06/11 07:02:17;;;;;;;13.68;4.00;;;;;;;22.70;50.66;102126.50;5033050;28;20042;-68
2022/06/11 07:04:44;;;;;;;13.55;3.58;;;;;;;22.73;50.49;102117.97;5032044;28;20137;-67
2022/06/11 07:07:15;;;;;;;14.57;3.50;;;;;;;22.71;50.05;102129.06;5032204;28;20050;-67
2022/06/11 07:09:42;;;;;;;13.98;3.45;;;;;;;22.72;50.13;102124.47;5031853;28;20385;-67
2022/06/11 07:12:13;;;;;;;11.88;4.00;;;;;;;22.73;50.37;102124.31;5031998;28;20414;-67
2022/06/11 07:14:39;;;;;;;10.57;3.30;;;;;;;22.73;49.87;102121.56;5035124;28;20061;-66
2022/06/11 07:17:09;;;;;;;11.05;3.80;;;;;;;22.72;49.91;102118.97;5030776;28;20529;-67
2022/06/11 07:19:45;;;;;;;10.48;3.40;;;;;;;22.72;49.58;102124.47;5039975;28;20406;-67
2022/06/11 07:22:26;;;;;;;12.98;3.47;;;;;;;22.73;49.67;102120.69;5033075;28;20041;-67
2022/06/11 07:24:54;;;;;;;14.95;4.63;;;;;;;22.81;49.95;102129.03;5032426;28;20459;-66
2022/06/11 07:27:28;;;;;;;13.02;3.67;;;;;;;22.85;49.68;102121.34;5033634;28;20053;-65
2022/06/11 07:29:59;;;;;;;14.48;4.25;;;;;;;22.90;49.68;102119.00;5033778;28;20112;-65
2022/06/11 07:32:35;;;;;;;13.82;3.45;;;;;;;22.97;49.57;102117.34;5031767;28;20427;-65
2022/06/11 07:35:04;;;;;;;13.70;4.13;;;;;;;23.09;49.95;102114.22;5031480;28;20119;-65
2022/06/11 07:37:32;;;;;;;10.38;3.60;;;;;;;23.20;49.56;102114.97;5031535;28;20049;-65
2022/06/11 07:39:59;;;;;;;13.60;3.47;;;;;;;23.29;49.42;102109.38;5031412;28;20140;-66
2022/06/11 07:42:28;;;;;;;13.05;3.85;;;;;;;23.39;49.32;102104.66;5031527;28;20041;-65
2022/06/11 07:44:55;;;;;;;9.82;3.28;;;;;;;23.54;49.27;102112.28;5031433;28;20133;-66
2022/06/11 07:50:08;;;;;;;15.93;3.58;;;;;;;23.81;49.03;102109.38;5032057;28;20120;-66
2022/06/11 07:52:35;;;;;;;13.15;3.83;;;;;;;23.92;48.90;102120.06;5031313;28;20036;-67
2022/06/11 07:55:01;;;;;;;13.10;3.85;;;;;;;24.00;48.71;102122.84;5033447;28;20419;-68
2022/06/11 07:57:28;;;;;;;16.00;4.97;;;;;;;24.04;48.27;102121.47;5032223;28;20047;-68
2022/06/11 07:59:54;;;;;;;12.88;3.95;;;;;;;24.07;47.94;102123.88;5030990;28;20049;-68
2022/06/11 08:02:24;;;;;;;11.50;3.80;;;;;;;24.09;47.95;102126.47;5031181;28;20038;-68
2022/06/11 08:04:54;;;;;;;14.95;4.00;;;;;;;24.12;48.04;102133.50;5035989;28;20049;-68
2022/06/11 08:07:21;;;;;;;8.30;2.80;;;;;;;24.17;47.82;102140.22;5031407;28;20049;-67
2022/06/11 08:09:48;;;;;;;9.68;3.35;;;;;;;24.19;47.81;102129.06;5017666;28;20063;-67
2022/06/11 08:12:18;;;;;;;11.88;3.40;;;;;;;24.28;47.86;102130.84;5029654;28;20337;-68
2022/06/11 08:14:45;;;;;;;14.00;3.92;;;;;;;24.44;47.97;102130.03;5031010;28;20068;-68
2022/06/11 08:17:12;;;;;;;14.77;3.92;;;;;;;24.66;47.67;102129.41;5030855;28;20402;-66
2022/06/11 08:19:38;;;;;;;15.43;4.10;;;;;;;24.87;47.57;102134.38;5030888;28;20037;-68
2022/06/11 08:22:09;;;;;;;15.52;3.83;;;;;;;24.97;47.23;102135.97;5031035;28;20178;-71
2022/06/11 08:24:35;;;;;;;16.33;3.85;;;;;;;25.14;47.10;102131.31;5037543;28;20063;-68
2022/06/11 08:27:02;;;;;;;10.43;3.75;;;;;;;25.33;46.93;102130.97;5031518;28;20041;-68
2022/06/11 08:29:32;;;;;;;15.57;3.50;;;;;;;25.42;46.38;102133.72;5030913;28;20045;-67
2022/06/11 08:31:58;;;;;;;11.63;4.00;;;;;;;25.47;45.72;102136.78;5037776;28;20040;-67
2022/06/11 08:34:31;;;;;;;12.60;3.45;;;;;;;25.51;45.66;102149.16;5037396;28;20492;-67
2022/06/11 08:36:57;;;;;;;12.38;3.72;;;;;;;25.58;45.46;102147.44;5031195;28;20116;-67
2022/06/11 08:39:24;;;;;;;12.27;3.88;;;;;;;25.65;45.46;102145.69;5035150;28;20037;-68
2022/06/11 08:41:51;;;;;;;13.75;3.60;;;;;;;25.75;45.07;102145.50;5034865;28;20046;-68
2022/06/11 08:44:17;;;;;;;13.43;3.38;;;;;;;25.82;44.28;102143.78;5036610;28;20049;-68
2022/06/11 08:46:48;;;;;;;10.25;3.25;;;;;;;25.90;44.15;102147.34;5034829;28;20085;-67
2022/06/11 08:49:45;;;;;;;8.80;3.00;;;;;;;26.00;43.73;102158.16;5034982;28;20053;-67
2022/06/11 08:52:16;;;;;;;9.52;2.50;;;;;;;26.10;43.55;102155.22;5030033;28;20059;-68
2022/06/11 08:54:45;;;;;;;12.68;3.47;;;;;;;26.14;43.37;102151.06;5033088;28;20060;-68
2022/06/11 08:57:57;;;;;;;10.20;3.63;;;;;;;26.16;43.42;102155.34;5034671;28;20045;-66
2022/06/11 09:00:34;;;;;;;15.07;4.20;;;;;;;26.24;43.69;102152.56;5033257;28;20132;-67
2022/06/11 09:03:23;;;;;;;12.48;3.80;;;;;;;26.34;43.15;102157.00;5034129;28;20071;-68
2022/06/11 09:06:18;;;;;;;16.85;3.88;;;;;;;26.29;42.78;102155.63;5036253;28;20033;-67
2022/06/11 09:09:01;;;;;;;13.00;3.65;;;;;;;26.27;42.60;102151.34;5034173;28;20494;-68
2022/06/11 09:12:23;;;;;;;11.18;3.60;;;;;;;26.28;42.93;102142.88;5028258;28;20034;-68
2022/06/11 09:15:17;;;;;;;10.48;4.00;;;;;;;26.42;42.88;102143.19;5033825;28;20099;-66
2022/06/11 09:18:06;;;;;;;15.65;4.85;;;;;;;26.49;42.91;102150.53;5029620;28;20398;-66
2022/06/11 09:20:44;;;;;;;14.23;3.85;;;;;;;26.64;42.90;102147.00;5034441;28;20117;-68
2022/06/11 09:23:47;;;;;;;10.52;3.10;;;;;;;26.73;42.34;102151.41;5033853;28;20055;-65
2022/06/11 09:26:23;;;;;;;14.65;3.25;;;;;;;26.83;42.50;102141.88;5033834;28;20124;-66
2022/06/11 09:29:01;;;;;;;9.13;2.47;;;;;;;26.96;42.41;102144.03;5034017;28;20045;-66
2022/06/11 09:31:42;;;;;;;11.73;2.85;;;;;;;27.09;42.10;102147.03;5033756;28;20041;-68
2022/06/11 09:34:12;;;;;;;12.75;3.05;;;;;;;27.20;41.91;102148.50;5033913;28;20041;-70
2022/06/11 09:36:43;;;;;;;10.43;3.28;;;;;;;27.24;41.56;102149.84;5033620;28;20041;-69
2022/06/11 09:39:21;;;;;;;32.63;4.47;;;;;;;27.25;41.45;102145.16;5033605;28;20061;-67
2022/06/11 09:42:49;;;;;;;18.50;3.83;;;;;;;27.23;40.92;102153.63;5033644;28;20041;-68
2022/06/11 09:45:28;;;;;;;11.02;3.30;;;;;;;27.20;40.64;102146.59;5015647;28;20046;-67
2022/06/11 09:48:03;;;;;;;12.50;3.42;;;;;;;27.14;40.31;102152.84;5021532;28;20411;-67
2022/06/11 09:50:38;;;;;;;13.75;3.53;;;;;;;27.10;40.43;102143.25;5030307;28;20103;-68
2022/06/11 09:53:24;;;;;;;12.38;2.90;;;;;;;27.12;40.69;102154.09;5025525;28;20041;-69
2022/06/11 09:56:15;;;;;;;13.38;3.10;;;;;;;27.19;41.24;102146.78;5033362;28;20037;-69
2022/06/11 09:58:52;;;;;;;9.88;3.05;;;;;;;27.30;40.95;102149.09;5029852;28;20038;-68
2022/06/11 10:01:28;;;;;;;10.88;3.08;;;;;;;27.41;41.19;102154.13;5033172;28;20045;-68
2022/06/11 10:04:11;;;;;;;10.95;3.17;;;;;;;27.55;40.44;102144.19;5033202;28;20373;-69
2022/06/11 10:06:48;;;;;;;11.02;2.90;;;;;;;27.61;40.31;102151.75;5032557;28;20045;-68
2022/06/11 10:09:22;;;;;;;14.27;3.90;;;;;;;27.59;40.17;102156.56;5030640;28;20501;-68
2022/06/11 10:11:56;;;;;;;11.07;3.58;;;;;;;27.64;40.38;102151.38;5023679;28;20039;-69
2022/06/11 10:14:36;;;;;;;11.07;3.65;;;;;;;27.68;40.43;102155.47;5033137;28;20061;-68
2022/06/11 10:17:23;;;;;;;13.52;3.88;;;;;;;27.76;40.46;102158.13;5029721;28;20045;-69
2022/06/11 10:19:53;;;;;;;12.60;3.47;;;;;;;27.79;40.54;102162.41;5034440;28;20044;-69
2022/06/11 10:22:30;;;;;;;11.55;3.67;;;;;;;27.79;40.46;102159.66;5033624;28;20052;-69
2022/06/11 10:25:15;;;;;;;15.57;4.00;;;;;;;27.79;40.38;102149.47;5032557;28;20064;-68
2022/06/11 10:27:51;;;;;;;11.02;3.53;;;;;;;27.90;40.42;102161.06;5028730;28;20041;-68
2022/06/11 10:30:47;;;;;;;11.30;3.45;;;;;;;27.99;40.06;102160.78;5026178;28;20048;-69
2022/06/11 10:33:32;;;;;;;13.98;3.67;;;;;;;28.14;39.75;102152.47;5024849;28;20049;-68
2022/06/11 10:36:19;;;;;;;;;;;;;;;28.21;39.87;102155.31;5027968;28;20049;-68
2022/06/11 10:39:01;;;;;;;15.75;4.03;;;;;;;28.29;39.81;102150.59;5030555;28;19921;-69
2022/06/11 10:41:36;;;;;;;13.10;3.67;;;;;;;28.29;39.66;102156.13;5025915;28;20096;-68
2022/06/11 10:44:21;;;;;;;10.73;3.75;;;;;;;28.36;39.69;102162.59;5026200;28;20058;-68
2022/06/11 10:46:47;;;;;;;14.55;3.50;;;;;;;28.40;39.25;102161.16;5023571;28;20096;-68
2022/06/11 10:49:19;;;;;;;13.52;4.15;;;;;;;28.39;39.05;102164.97;5028191;28;20071;-68
2022/06/11 10:51:57;;;;;;;9.15;3.13;;;;;;;28.40;39.10;102146.47;5029668;28;20511;-69
2022/06/11 10:54:25;;;;;;;17.00;3.90;;;;;;;28.50;39.06;102143.41;5030393;28;20049;-69
2022/06/11 10:56:57;;;;;;;10.13;3.10;;;;;;;28.59;38.34;102148.59;5032135;28;20450;-69
2022/06/11 10:59:38;;;;;;;17.75;3.30;;;;;;;28.65;37.82;102144.19;5031877;28;20124;-66
2022/06/11 11:02:26;;;;;;;11.50;2.50;;;;;;;28.75;38.10;102148.34;5031161;28;20080;-69
2022/06/11 11:05:04;;;;;;;7.97;2.72;;;;;;;28.94;37.68;102146.84;5031632;28;20509;-69
2022/06/11 11:07:54;;;;;;;9.25;2.88;;;;;;;29.04;37.37;102144.63;5032022;28;20048;-68
2022/06/11 11:10:36;;;;;;;6.70;2.47;;;;;;;29.15;37.12;102146.00;5028609;28;20442;-69
2022/06/11 11:13:24;;;;;;;8.70;2.42;;;;;;;29.26;37.42;102141.84;5031896;28;20033;-68
2022/06/11 11:16:06;;;;;;;7.88;3.00;;;;;;;29.38;37.13;102134.69;5031750;28;20076;-68
2022/06/11 11:18:40;;;;;;;13.77;3.28;;;;;;;29.43;36.57;102134.97;5032835;28;20047;-68
2022/06/11 11:21:17;;;;;;;11.73;3.17;;;;;;;29.35;36.38;102130.41;5031872;28;20055;-68
2022/06/11 11:23:48;;;;;;;6.72;2.63;;;;;;;29.42;37.18;102127.69;5031757;28;20034;-69
2022/06/11 11:26:25;;;;;;;13.02;2.92;;;;;;;29.62;37.61;102139.78;5031703;28;20068;-68
2022/06/11 11:28:54;;;;;;;11.73;3.50;;;;;;;29.82;37.77;102134.38;5031969;28;20129;-69
2022/06/11 11:31:27;;;;;;;13.63;3.67;;;;;;;30.00;37.46;102140.22;5030206;28;20042;-68
2022/06/11 11:34:10;;;;;;;8.02;2.55;;;;;;;30.11;37.49;102136.03;5031669;28;20052;-68
2022/06/11 11:36:37;;;;;;;8.10;2.53;;;;;;;30.25;37.12;102129.50;5031249;28;20040;-69
2022/06/11 11:39:13;;;;;;;13.43;2.97;;;;;;;30.39;37.37;102132.31;5031392;28;20117;-69
2022/06/11 11:42:11;;;;;;;14.50;3.13;;;;;;;30.54;36.31;102131.09;5032385;28;20068;-69
2022/06/11 11:44:49;;;;;;;17.27;3.28;;;;;;;30.59;36.13;102136.91;5030296;28;20418;-68
2022/06/11 11:47:32;;;;;;;11.07;3.10;;;;;;;30.58;35.93;102126.84;5031649;28;20042;-68
2022/06/11 11:50:04;;;;;;;11.32;3.15;;;;;;;30.59;36.18;102123.03;5031055;28;20041;-69
2022/06/11 11:52:49;;;;;;;10.82;2.92;;;;;;;30.77;36.72;102122.41;5032517;28;21387;-68
2022/06/11 11:55:21;;;;;;;11.27;3.03;;;;;;;30.97;36.93;102116.88;5031423;28;20052;-68